Terminal Aerodrome Forecast
Issued by NWS Shreveport, LA

Home | Current Version | Previous Version | Text Only | Print | Product List | Glossary On
Versions: 1 2 3 4 5 6 7 8 9 10 11 12 13
000
FTUS44 KSHV 311141
TAFMLU
TAF
KMLU 311141Z 3112/0112 19003KT P6SM BKN250
     FM311500 22005KT P6SM SCT050 BKN250
     FM312000 18005KT P6SM SCT050 SCT250
     FM010000 VRB03KT P6SM FEW250=

USA.gov is the U.S. government's official web portal to all federal, state and local government web resources and services.